Data for 01/07/2010

Time Sea-Level Adjusted Pressure Absolute Pressure Temperature Relative Humidity Dew Point   
(mb) (inHg) (mb) (inHg) (C) (F) (%) (C) (F)
00:05 1029 30.39 859 25.37 -22.6 -8.6 79 -25.2 -13.4
00:10 1029 30.39 858 25.34 -22.5 -8.4 80 -25 -13
00:15 1029 30.39 858 25.34 -21.9 -7.5 79 -24.6 -12.3
00:20 1029 30.39 858 25.34 -21.6 -6.8 78 -24.4 -11.9
00:25 1029 30.39 858 25.34 -21.3 -6.4 78 -24.2 -11.6
00:30 1029 30.39 858 25.34 -21.3 -6.3 77 -24.2 -11.6
00:35 1029 30.39 858 25.34 -21.2 -6.1 77 -24.2 -11.5
00:40 1029 30.39 858 25.34 -21.2 -6.1 78 -24.1 -11.4
00:45 1029 30.39 858 25.34 -21.3 -6.3 78 -24.2 -11.6
00:50 1029 30.39 858 25.34 -21.4 -6.6 78 -24.3 -11.7
00:55 1029 30.39 858 25.34 -21.5 -6.7 78 -24.3 -11.8
01:00 1029 30.39 858 25.34 -21.8 -7.3 79 -24.6 -12.2
01:05 1029 30.39 858 25.34 -22.3 -8.2 80 -24.9 -12.8
01:10 1029 30.39 858 25.34 -22.5 -8.4 80 -25 -13.1
01:15 1029 30.39 858 25.34 -22.6 -8.6 80 -25.2 -13.4
01:20 1029 30.39 858 25.34 -22.6 -8.7 80 -25.2 -13.3
01:25 1029 30.39 858 25.34 -22.6 -8.7 80 -25.2 -13.3
01:30 1029 30.39 858 25.34 -22.4 -8.3 80 -25 -13
01:35 1029 30.39 858 25.34 -22.1 -7.7 79 -24.8 -12.6
01:40 1029 30.39 858 25.34 -22.1 -7.7 79 -24.8 -12.6
01:45 1029 30.39 858 25.34 -22 -7.7 79 -24.8 -12.6
01:50 1029 30.39 858 25.34 -22.2 -8 79 -24.9 -12.8
01:55 1029 30.39 858 25.34 -22.2 -8 80 -24.9 -12.8
02:00 1029 30.39 858 25.34 -22.3 -8.1 79 -25 -13
02:05 1029 30.39 858 25.34 -22.3 -8.2 79 -25 -13
02:10 1029 30.39 858 25.34 -22.3 -8.2 79 -25 -13
02:15 1029 30.39 858 25.34 -22.4 -8.2 79 -25 -13
02:20 1029 30.39 858 25.34 -22.5 -8.5 80 -25.1 -13.1
02:25 1029 30.39 858 25.34 -22.3 -8.2 79 -25 -13.1
02:30 1029 30.39 858 25.34 -22.3 -8.1 79 -25 -12.9
02:35 1029 30.39 858 25.34 -22.1 -7.8 79 -24.8 -12.6
02:40 1029 30.39 858 25.34 -22.1 -7.8 80 -24.7 -12.5
02:45 1029 30.39 858 25.34 -21.9 -7.4 80 -24.5 -12.1
02:50 1029 30.39 858 25.34 -21.7 -7 81 -24.1 -11.4
02:55 1029 30.39 858 25.34 -21.3 -6.4 81 -23.8 -10.9
03:00 1029 30.39 858 25.34 -20.8 -5.5 79 -23.5 -10.3
03:05 1029 30.39 858 25.34 -20.5 -4.9 79 -23.2 -9.8
03:10 1029 30.39 858 25.34 -20.3 -4.6 78 -23.2 -9.8
03:15 1029 30.39 858 25.34 -20.7 -5.2 80 -23.3 -10
03:20 1029 30.39 859 25.37 -21 -5.8 79 -23.7 -10.7
03:25 1029 30.39 859 25.37 -21.4 -6.5 80 -23.9 -11.1
03:30 1029 30.39 859 25.37 -21.7 -7 78 -24.5 -12.2
03:35 1029 30.39 859 25.37 -21.8 -7.3 80 -24.4 -11.9
03:40 1029 30.39 859 25.37 -21.9 -7.3 79 -24.7 -12.4
03:45 1029 30.39 859 25.37 -22.1 -7.9 79 -24.8 -12.7
03:50 1029 30.39 859 25.37 -22.2 -7.9 80 -24.8 -12.6
03:55 1029 30.39 859 25.37 -22.4 -8.2 80 -24.9 -12.8
04:00 1029 30.39 858 25.34 -22.4 -8.3 79 -25.1 -13.1
04:05 1029 30.39 858 25.34 -22.6 -8.8 81 -25.1 -13.2
04:10 1029 30.39 858 25.34 -22.6 -8.6 81 -25 -13
04:15 1029 30.39 859 25.37 -22.3 -8.1 81 -24.7 -12.5
04:20 1029 30.39 859 25.37 -22 -7.6 80 -24.6 -12.2
04:25 1029 30.39 859 25.37 -22.1 -7.8 79 -24.8 -12.6
04:30 1029 30.39 859 25.37 -22.3 -8.2 81 -24.7 -12.5
04:35 1029 30.39 859 25.37 -22.2 -8 80 -24.8 -12.6
04:40 1029 30.39 859 25.37 -22.3 -8.1 81 -24.7 -12.5
04:45 1030 30.42 859 25.37 -22.1 -7.7 81 -24.5 -12.1
04:50 1030 30.42 859 25.37 -22 -7.6 81 -24.4 -11.9
04:55 1030 30.42 859 25.37 -21.8 -7.2 81 -24.2 -11.6
05:00 1030 30.42 859 25.37 -21.6 -6.8 79 -24.3 -11.7
05:05 1030 30.42 859 25.37 -22 -7.6 81 -24.4 -11.9
05:10 1030 30.42 859 25.37 -21.9 -7.5 82 -24.2 -11.6
05:15 1030 30.42 859 25.37 -21.8 -7.2 80 -24.3 -11.8
05:20 1030 30.42 859 25.37 -22 -7.5 79 -24.6 -12.4
05:25 1030 30.42 859 25.37 -22.4 -8.3 83 -24.6 -12.2
05:30 1030 30.42 859 25.37 -22.2 -8 83 -24.4 -11.9
05:35 1030 30.42 859 25.37 -22 -7.6 84 -24 -11.2
05:40 1030 30.42 859 25.37 -21.9 -7.4 83 -24 -11.1
05:45 1030 30.42 859 25.37 -21.7 -7 81 -24.1 -11.3
05:50 1030 30.42 859 25.37 -22 -7.6 82 -24.2 -11.6
05:55 1030 30.42 859 25.37 -22.1 -7.9 82 -24.4 -12
06:00 1030 30.42 859 25.37 -22.3 -8.1 83 -24.5 -12.1
06:05 1030 30.42 859 25.37 -22.3 -8.2 82 -24.6 -12.3
06:10 1030 30.42 859 25.37 -22.3 -8.2 82 -24.7 -12.4
06:15 1030 30.42 859 25.37 -22.3 -8.1 81 -24.7 -12.5
06:20 1030 30.42 859 25.37 -22.6 -8.6 81 -25 -13
06:25 1030 30.42 859 25.37 -23 -9.4 81 -25.4 -13.7
06:30 1030 30.42 859 25.37 -23.2 -9.8 82 -25.4 -13.8
06:35 1030 30.42 859 25.37 -23.2 -9.7 80 -25.7 -14.3
06:40 1030 30.42 859 25.37 -23.4 -10 82 -25.7 -14.2
06:45 1030 30.42 859 25.37 -23.1 -9.5 80 -25.6 -14.1
06:50 1030 30.42 859 25.37 -23.1 -9.7 81 -25.5 -14
06:55 1030 30.42 859 25.37 -23 -9.5 81 -25.5 -13.8
07:00 1030 30.42 859 25.37 -23 -9.3 81 -25.4 -13.8
07:05 1030 30.42 859 25.37 -23 -9.3 80 -25.5 -13.9
07:10 1030 30.42 859 25.37 -23.1 -9.5 81 -25.5 -13.9
07:15 1030 30.42 859 25.37 -23.1 -9.5 81 -25.5 -13.8
07:20 1029 30.39 859 25.37 -22.9 -9.3 81 -25.3 -13.6
07:25 1029 30.39 859 25.37 -22.7 -8.9 80 -25.2 -13.4
07:30 1029 30.39 859 25.37 -22.5 -8.5 80 -25 -13
07:35 1029 30.39 859 25.37 -22.3 -8.1 80 -24.9 -12.8
07:40 1029 30.39 859 25.37 -22 -7.6 80 -24.6 -12.2
07:45 1029 30.39 859 25.37 -21.8 -7.2 80 -24.4 -12
07:50 1029 30.39 859 25.37 -21.9 -7.4 80 -24.5 -12.2
07:55 1029 30.39 859 25.37 -22.1 -7.9 79 -24.8 -12.7
08:00 1029 30.39 859 25.37 -22.5 -8.5 79 -25.2 -13.4
08:05 1029 30.39 859 25.37 -22.9 -9.2 80 -25.4 -13.7
08:10 1029 30.39 859 25.37 -22.9 -9.1 82 -25.2 -13.3
08:15 1029 30.39 859 25.37 -22.5 -8.5 81 -25 -13
08:20 1029 30.39 859 25.37 -22.4 -8.4 81 -24.9 -12.8
08:25 1029 30.39 859 25.37 -22.1 -7.8 80 -24.8 -12.6
08:30 1029 30.39 859 25.37 -21.6 -7 77 -24.6 -12.3
08:35 1029 30.39 859 25.37 -21.6 -6.8 76 -24.7 -12.5
08:40 1029 30.39 859 25.37 -21.6 -6.8 76 -24.8 -12.6
08:45 1029 30.39 858 25.34 -21.6 -6.9 75 -24.9 -12.8
08:50 1029 30.39 858 25.34 -21.6 -6.9 75 -24.9 -12.8
08:55 1029 30.39 858 25.34 -21.3 -6.3 74 -24.8 -12.6
09:00 1029 30.39 858 25.34 -21.4 -6.4 74 -24.8 -12.7
09:05 1029 30.39 858 25.34 -21.2 -6.1 74 -24.6 -12.3
09:10 1029 30.39 858 25.34 -20.6 -5.1 72 -24.4 -12
09:15 1029 30.39 859 25.37 -20.5 -4.8 73 -24.1 -11.4
09:20 1029 30.39 859 25.37 -20.3 -4.5 73 -24 -11.2
09:25 1029 30.39 859 25.37 -19.9 -3.7 72 -23.7 -10.7
09:30 1029 30.39 859 25.37 -19.5 -3.1 72 -23.4 -10.1
09:35 1029 30.39 859 25.37 -18.9 -2.1 71 -22.9 -9.2
09:40 1029 30.39 859 25.37 -18.4 -1.1 68 -23 -9.4
09:45 1029 30.39 859 25.37 -18.4 -1.1 67 -23.1 -9.7
09:50 1029 30.39 859 25.37 -18.2 -0.8 65 -23.2 -9.8
09:55 1030 30.42 859 25.37 -18.1 -0.7 65 -23.3 -9.9
10:00 1030 30.42 859 25.37 -18 -0.3 65 -23 -9.4
10:05 1030 30.42 859 25.37 -17.8 -0 65 -22.8 -9.1
10:10 1029 30.39 859 25.37 -17.9 -0.2 68 -22.4 -8.3
10:15 1030 30.42 859 25.37 -17.5 0.6 65 -22.5 -8.6
10:20 1030 30.42 859 25.37 -17.1 1.1 63 -22.5 -8.6
10:25 1030 30.42 859 25.37 -16.8 1.9 65 -21.9 -7.4
10:30 1030 30.42 859 25.37 -16.7 2 65 -21.7 -7.1
10:35 1030 30.42 859 25.37 -16.6 2.1 66 -21.6 -6.9
10:40 1030 30.42 859 25.37 -17 1.5 68 -21.5 -6.7
10:45 1030 30.42 859 25.37 -17.1 1.3 68 -21.7 -7.1
10:50 1029 30.39 859 25.37 -16.5 2.3 68 -21.2 -6.1
10:55 1029 30.39 859 25.37 -15.6 3.9 63 -21.1 -6.1
11:00 1029 30.39 859 25.37 -15.5 4 64 -20.9 -5.7
11:05 1029 30.39 859 25.37 -15.5 4.1 63 -21.1 -6
11:10 1029 30.39 859 25.37 -15.3 4.5 62 -20.9 -5.7
11:15 1029 30.39 858 25.34 -15.4 4.3 63 -21 -5.9
11:20 1029 30.39 858 25.34 -15.5 4.1 64 -20.9 -5.7
11:25 1029 30.39 858 25.34 -16 3.3 65 -21 -5.9
11:30 1029 30.39 858 25.34 -16.3 2.8 66 -21.2 -6.2
11:35 1029 30.39 858 25.34 -16.4 2.5 66 -21.3 -6.4
11:40 1029 30.39 858 25.34 -15.9 3.3 64 -21.2 -6.1
11:45 1029 30.39 858 25.34 -15.6 3.9 64 -20.9 -5.7
11:50 1029 30.39 858 25.34 -15.1 4.7 61 -21 -5.8
11:55 1029 30.39 858 25.34 -14.8 5.5 60 -20.9 -5.7
12:00 1029 30.39 858 25.34 -14.9 5.2 60 -21 -5.7
12:05 1029 30.39 858 25.34 -15.8 3.7 65 -21 -5.8
12:10 1029 30.39 858 25.34 -16.2 2.8 66 -21.2 -6.2
12:15 1029 30.39 858 25.34 -16.1 3.1 65 -21.3 -6.3
12:20 1028 30.36 858 25.34 -15.8 3.6 64 -21.2 -6.1
12:25 1028 30.36 858 25.34 -16.5 2.4 65 -21.5 -6.7
12:30 1028 30.36 858 25.34 -17.1 1.2 69 -21.5 -6.8
12:35 1028 30.36 858 25.34 -15.8 3.5 65 -21 -5.8
12:40 1028 30.36 858 25.34 -14.5 5.8 59 -20.8 -5.5
12:45 1028 30.36 857 25.31 -13.8 7.2 57 -20.7 -5.2
12:50 1028 30.36 857 25.31 -14.1 6.6 60 -20.3 -4.6
12:55 1028 30.36 857 25.31 -14.8 5.5 59 -21 -5.8
13:00 1028 30.36 857 25.31 -15 4.9 63 -20.6 -5.1
13:05 1028 30.36 857 25.31 -14.6 5.7 60 -20.7 -5.3
13:10 1028 30.36 857 25.31 -14.8 5.5 60 -20.9 -5.6
13:15 1028 30.36 857 25.31 -14.6 5.8 61 -20.6 -5.1
13:20 1028 30.36 857 25.31 -14.6 5.7 63 -20.3 -4.5
13:25 1028 30.36 857 25.31 -14.7 5.6 61 -20.7 -5.3
13:30 1028 30.36 857 25.31 -14.2 6.4 57 -20.9 -5.6
13:35 1028 30.36 857 25.31 -14.8 5.3 61 -20.7 -5.3
13:40 1028 30.36 857 25.31 -15.1 4.8 63 -20.6 -5.1
13:45 1028 30.36 857 25.31 -14.5 5.9 61 -20.4 -4.7
13:50 1028 30.36 857 25.31 -14.6 5.8 61 -20.5 -5
13:55 1028 30.36 857 25.31 -14.1 6.6 58 -20.8 -5.4
14:00 1028 30.36 857 25.31 -13.9 6.9 58 -20.5 -5
14:05 1028 30.36 857 25.31 -14.1 6.5 59 -20.5 -4.9
14:10 1028 30.36 857 25.31 -14 6.8 58 -20.5 -4.9
14:15 1028 30.36 857 25.31 -13.7 7.3 57 -20.4 -4.7
14:20 1028 30.36 857 25.31 -13.9 7 60 -20.2 -4.3
14:25 1028 30.36 857 25.31 -14 6.9 60 -20.2 -4.3
14:30 1028 30.36 857 25.31 -13.9 7 61 -20 -3.9
14:35 1028 30.36 857 25.31 -14.1 6.6 63 -19.7 -3.5
14:40 1028 30.36 857 25.31 -14.2 6.4 59 -20.6 -5
14:45 1028 30.36 857 25.31 -14.3 6.3 61 -20.2 -4.4
14:50 1028 30.36 857 25.31 -15 5 62 -20.7 -5.2
14:55 1028 30.36 857 25.31 -15.2 4.6 64 -20.6 -5.1
15:00 1028 30.36 857 25.31 -14.8 5.4 62 -20.6 -5
15:05 1028 30.36 857 25.31 -14.5 6 61 -20.4 -4.7
15:10 1028 30.36 857 25.31 -14.2 6.5 60 -20.4 -4.8
15:15 1028 30.36 857 25.31 -13.8 7.2 58 -20.3 -4.6
15:20 1027 30.33 857 25.31 -13.4 7.9 56 -20.4 -4.8
15:25 1027 30.33 857 25.31 -13.5 7.7 57 -20.4 -4.7
15:30 1027 30.33 857 25.31 -13.5 7.8 56 -20.5 -4.9
15:35 1027 30.33 856 25.28 -14 6.7 60 -20.2 -4.4
15:40 1027 30.33 856 25.28 -14.5 6 63 -20.1 -4.2
15:45 1027 30.33 856 25.28 -15 5.1 63 -20.5 -4.9
15:50 1027 30.33 856 25.28 -14.6 5.7 62 -20.3 -4.6
15:55 1027 30.33 856 25.28 -15.1 4.8 64 -20.5 -4.8
16:00 1027 30.33 856 25.28 -15.7 3.8 66 -20.7 -5.2
16:05 1027 30.33 856 25.28 -15.4 4.2 66 -20.4 -4.8
16:10 1027 30.33 856 25.28 -14.7 5.6 63 -20.2 -4.4
16:15 1027 30.33 857 25.31 -14.1 6.6 61 -20.2 -4.3
16:20 1027 30.33 857 25.31 -14.1 6.6 60 -20.3 -4.5
16:25 1028 30.36 857 25.31 -14.7 5.6 62 -20.4 -4.7
16:30 1028 30.36 857 25.31 -15 4.9 64 -20.4 -4.7
16:35 1028 30.36 857 25.31 -15.4 4.4 64 -20.6 -5.2
16:40 1028 30.36 857 25.31 -15.6 3.9 65 -20.7 -5.3
16:45 1028 30.36 857 25.31 -16 3.3 66 -20.9 -5.6
16:50 1028 30.36 857 25.31 -16.4 2.5 69 -20.9 -5.6
16:55 1028 30.36 857 25.31 -17 1.4 71 -21.1 -5.9
17:00 1027 30.33 857 25.31 -17.4 0.7 73 -21.2 -6.1
17:05 1028 30.36 857 25.31 -17.8 0 75 -21.2 -6.1
17:10 1027 30.33 857 25.31 -18.1 -0.6 77 -21.3 -6.3
17:15 1027 30.33 857 25.31 -18.4 -1.2 79 -21.2 -6.2
17:20 1027 30.33 857 25.31 -18.7 -1.6 79 -21.4 -6.5
17:25 1027 30.33 857 25.31 -19 -2.1 81 -21.5 -6.7
17:30 1027 30.33 857 25.31 -19.2 -2.6 82 -21.7 -7
17:35 1027 30.33 857 25.31 -19.4 -2.9 82 -21.8 -7.2
17:40 1027 30.33 856 25.28 -19.3 -2.8 81 -21.8 -7.2
17:45 1027 30.33 856 25.28 -19.5 -3.1 82 -21.8 -7.3
17:50 1027 30.33 856 25.28 -19.9 -3.7 83 -22.1 -7.7
17:55 1027 30.33 856 25.28 -20 -4.1 83 -22.3 -8.1
18:00 1027 30.33 856 25.28 -20.1 -4.2 83 -22.3 -8.1
18:05 1027 30.33 856 25.28 -20 -4 82 -22.3 -8.1
18:10 1027 30.33 856 25.28 -19.9 -3.8 83 -22.1 -7.8
18:15 1027 30.33 856 25.28 -19.8 -3.6 81 -22.2 -8
18:20 1027 30.33 856 25.28 -20 -3.9 83 -22.1 -7.8
18:25 1027 30.33 856 25.28 -20 -4 81 -22.5 -8.5
18:30 1027 30.33 856 25.28 -20.3 -4.5 83 -22.5 -8.5
18:35 1027 30.33 856 25.28 -19.9 -3.8 81 -22.3 -8.1
18:40 1027 30.33 856 25.28 -19.5 -3 81 -21.9 -7.4
18:45 1027 30.33 856 25.28 -19 -2.2 79 -21.7 -7.1
18:50 1027 30.33 856 25.28 -19 -2.2 78 -22 -7.5
18:55 1027 30.33 856 25.28 -19.4 -2.9 79 -22.2 -7.9
19:00 1027 30.33 856 25.28 -19.2 -2.6 81 -21.7 -7.1
19:05 1027 30.33 856 25.28 -18.6 -1.4 77 -21.6 -6.9
19:10 1027 30.33 856 25.28 -18.2 -0.8 78 -21.2 -6.1
19:15 1027 30.33 856 25.28 -18.2 -0.8 73 -22 -7.6
19:20 1027 30.33 856 25.28 -19.2 -2.6 79 -22.1 -7.7
19:25 1027 30.33 856 25.28 -19.2 -2.6 81 -21.7 -7.1
19:30 1027 30.33 856 25.28 -19 -2.3 78 -21.9 -7.5
19:35 1027 30.33 856 25.28 -19.2 -2.5 80 -21.8 -7.2
19:40 1027 30.33 856 25.28 -19.3 -2.7 80 -21.9 -7.5
19:45 1027 30.33 856 25.28 -19.6 -3.3 80 -22.3 -8.1
19:50 1026 30.3 856 25.28 -19.6 -3.4 84 -21.7 -7.1
19:55 1027 30.33 856 25.28 -18.4 -1.2 78 -21.3 -6.4
20:00 1027 30.33 856 25.28 -18.2 -0.7 76 -21.4 -6.6
20:05 1027 30.33 856 25.28 -18.9 -1.9 78 -21.8 -7.3
20:10 1027 30.33 856 25.28 -19 -2.1 80 -21.7 -7
20:15 1026 30.3 856 25.28 -18.9 -2 81 -21.4 -6.6
20:20 1026 30.3 856 25.28 -19.1 -2.4 81 -21.7 -7
20:25 1026 30.3 856 25.28 -19.3 -2.7 83 -21.5 -6.6
20:30 1026 30.3 856 25.28 -19.1 -2.3 81 -21.6 -6.8
20:35 1026 30.3 856 25.28 -18.7 -1.7 81 -21.3 -6.4
20:40 1026 30.3 856 25.28 -18.6 -1.5 81 -21.1 -6
20:45 1027 30.33 856 25.28 -18.3 -1 82 -20.7 -5.3
20:50 1027 30.33 856 25.28 -18.1 -0.6 80 -20.7 -5.3
20:55 1027 30.33 856 25.28 -18 -0.5 80 -20.7 -5.3
21:00 1027 30.33 856 25.28 -17.9 -0.3 78 -20.8 -5.5
21:05 1027 30.33 856 25.28 -18 -0.3 78 -21 -5.8
21:10 1027 30.33 856 25.28 -18.2 -0.8 76 -21.5 -6.6
21:15 1027 30.33 856 25.28 -18.9 -2 78 -21.8 -7.2
21:20 1027 30.33 856 25.28 -19.5 -3.1 81 -21.9 -7.5
21:25 1027 30.33 856 25.28 -19.4 -3 84 -21.6 -6.8
21:30 1026 30.3 856 25.28 -19.4 -2.9 83 -21.7 -7
21:35 1026 30.3 856 25.28 -19.2 -2.5 82 -21.5 -6.8
21:40 1026 30.3 856 25.28 -18.7 -1.7 83 -20.9 -5.7
21:45 1027 30.33 856 25.28 -18.5 -1.3 80 -21.1 -6
21:50 1027 30.33 856 25.28 -18.6 -1.5 81 -21.1 -6
21:55 1027 30.33 856 25.28 -18.7 -1.6 83 -20.9 -5.7
22:00 1027 30.33 856 25.28 -18.6 -1.4 81 -21.1 -5.9
22:05 1026 30.3 856 25.28 -18.8 -1.8 81 -21.2 -6.2
22:10 1026 30.3 856 25.28 -19 -2.2 81 -21.5 -6.7
22:15 1026 30.3 856 25.28 -18.8 -1.8 82 -21.1 -5.9
22:20 1026 30.3 856 25.28 -18.4 -1.1 81 -20.9 -5.6
22:25 1026 30.3 856 25.28 -18.4 -1 78 -21.2 -6.2
22:30 1026 30.3 856 25.28 -19 -2.1 83 -21.2 -6.1
22:35 1026 30.3 855 25.25 -18.5 -1.4 82 -20.9 -5.5
22:40 1026 30.3 855 25.25 -18.4 -1.2 81 -21 -5.7
22:45 1026 30.3 855 25.25 -18.6 -1.4 81 -21 -5.9
22:50 1026 30.3 855 25.25 -18.3 -1 82 -20.7 -5.3
22:55 1026 30.3 855 25.25 -18.3 -0.9 83 -20.4 -4.8
23:00 1026 30.3 855 25.25 -18 -0.4 80 -20.6 -5.1
23:05 1026 30.3 855 25.25 -18.3 -1 81 -20.9 -5.6
23:10 1026 30.3 855 25.25 -18.7 -1.7 81 -21.2 -6.1
23:15 1026 30.3 855 25.25 -18.9 -2 81 -21.3 -6.4
23:20 1026 30.3 855 25.25 -19 -2.1 83 -21.2 -6.1
23:25 1026 30.3 855 25.25 -18.7 -1.7 84 -20.8 -5.5
23:30 1025 30.27 855 25.25 -18.4 -1 84 -20.4 -4.7
23:35 1025 30.27 855 25.25 -17.8 0.1 83 -19.9 -3.9
23:40 1025 30.27 855 25.25 -17.5 0.6 83 -19.7 -3.4
23:45 1025 30.27 855 25.25 -17.2 1 82 -19.6 -3.2
23:50 1025 30.27 855 25.25 -17.1 1.2 81 -19.6 -3.4
23:55 1025 30.27 855 25.25 -17.1 1.1 81 -19.7 -3.5
24:00 1025 30.27 855 25.25 -17.2 1 80 -19.9 -3.9